sensor_id;sensor_type;location;lat;lon;timestamp;temperature;humidity
2202;DHT22;1107;48.654;9.250;2023-07-28T00:02:06;17.00;99.90
2202;DHT22;1107;48.654;9.250;2023-07-28T00:04:34;16.90;99.90
2202;DHT22;1107;48.654;9.250;2023-07-28T00:07:01;16.90;99.90
2202;DHT22;1107;48.654;9.250;2023-07-28T00:09:29;16.90;99.90
2202;DHT22;1107;48.654;9.250;2023-07-28T00:11:56;16.90;99.90
2202;DHT22;1107;48.654;9.250;2023-07-28T00:14:24;16.90;99.90
2202;DHT22;1107;48.654;9.250;2023-07-28T00:16:51;16.90;99.90
2202;DHT22;1107;48.654;9.250;2023-07-28T00:19:18;16.90;99.90
2202;DHT22;1107;48.654;9.250;2023-07-28T00:21:46;16.90;99.90
2202;DHT22;1107;48.654;9.250;2023-07-28T00:24:13;16.80;99.90
2202;DHT22;1107;48.654;9.250;2023-07-28T00:26:40;16.80;99.90
2202;DHT22;1107;48.654;9.250;2023-07-28T00:29:07;16.70;99.90
2202;DHT22;1107;48.654;9.250;2023-07-28T00:31:36;16.70;99.90
2202;DHT22;1107;48.654;9.250;2023-07-28T00:34:03;16.60;99.90
2202;DHT22;1107;48.654;9.250;2023-07-28T00:36:30;16.60;99.90
2202;DHT22;1107;48.654;9.250;2023-07-28T00:38:57;16.50;99.90
2202;DHT22;1107;48.654;9.250;2023-07-28T00:41:24;16.60;99.90
2202;DHT22;1107;48.654;9.250;2023-07-28T00:43:51;16.60;99.90
2202;DHT22;1107;48.654;9.250;2023-07-28T00:46:19;16.60;99.90
2202;DHT22;1107;48.654;9.250;2023-07-28T00:48:47;16.70;99.90
2202;DHT22;1107;48.654;9.250;2023-07-28T00:51:14;16.70;99.90
2202;DHT22;1107;48.654;9.250;2023-07-28T00:53:41;16.80;99.90
2202;DHT22;1107;48.654;9.250;2023-07-28T00:56:08;16.80;99.90
2202;DHT22;1107;48.654;9.250;2023-07-28T00:58:37;16.80;99.90
2202;DHT22;1107;48.654;9.250;2023-07-28T01:01:04;16.80;99.90
2202;DHT22;1107;48.654;9.250;2023-07-28T01:03:31;16.90;99.90
2202;DHT22;1107;48.654;9.250;2023-07-28T01:06:20;16.80;99.90
2202;DHT22;1107;48.654;9.250;2023-07-28T01:08:56;16.80;99.90
2202;DHT22;1107;48.654;9.250;2023-07-28T01:11:25;16.70;99.90
2202;DHT22;1107;48.654;9.250;2023-07-28T01:13:52;16.60;99.90
2202;DHT22;1107;48.654;9.250;2023-07-28T01:16:19;16.50;99.90
2202;DHT22;1107;48.654;9.250;2023-07-28T01:18:46;16.50;99.90
2202;DHT22;1107;48.654;9.250;2023-07-28T01:21:22;16.40;99.90
2202;DHT22;1107;48.654;9.250;2023-07-28T01:23:58;16.40;99.90
2202;DHT22;1107;48.654;9.250;2023-07-28T01:26:31;16.40;99.90
2202;DHT22;1107;48.654;9.250;2023-07-28T01:29:00;16.40;99.90
2202;DHT22;1107;48.654;9.250;2023-07-28T01:31:27;16.40;99.90
2202;DHT22;1107;48.654;9.250;2023-07-28T01:33:54;16.30;99.90
2202;DHT22;1107;48.654;9.250;2023-07-28T01:36:21;16.30;99.90
2202;DHT22;1107;48.654;9.250;2023-07-28T01:38:48;16.20;99.90
2202;DHT22;1107;48.654;9.250;2023-07-28T01:41:15;16.20;99.90
2202;DHT22;1107;48.654;9.250;2023-07-28T01:43:43;16.10;99.90
2202;DHT22;1107;48.654;9.250;2023-07-28T01:46:10;16.10;99.90
2202;DHT22;1107;48.654;9.250;2023-07-28T01:48:37;16.10;99.90
2202;DHT22;1107;48.654;9.250;2023-07-28T01:51:04;16.00;99.90
2202;DHT22;1107;48.654;9.250;2023-07-28T01:53:31;16.00;99.90
2202;DHT22;1107;48.654;9.250;2023-07-28T01:55:58;16.00;99.90
2202;DHT22;1107;48.654;9.250;2023-07-28T01:58:26;16.00;99.90
2202;DHT22;1107;48.654;9.250;2023-07-28T02:00:54;15.90;99.90
2202;DHT22;1107;48.654;9.250;2023-07-28T02:03:21;15.90;99.90
2202;DHT22;1107;48.654;9.250;2023-07-28T02:05:48;15.90;99.90
2202;DHT22;1107;48.654;9.250;2023-07-28T02:08:15;15.90;99.90
2202;DHT22;1107;48.654;9.250;2023-07-28T02:10:43;15.80;99.90
2202;DHT22;1107;48.654;9.250;2023-07-28T02:13:11;15.80;99.90
2202;DHT22;1107;48.654;9.250;2023-07-28T02:15:37;15.70;99.90
2202;DHT22;1107;48.654;9.250;2023-07-28T02:18:06;15.70;99.90
2202;DHT22;1107;48.654;9.250;2023-07-28T02:20:33;15.60;99.90
2202;DHT22;1107;48.654;9.250;2023-07-28T02:23:01;15.60;99.90
2202;DHT22;1107;48.654;9.250;2023-07-28T02:25:28;15.60;99.90
2202;DHT22;1107;48.654;9.250;2023-07-28T02:27:55;15.50;99.90
2202;DHT22;1107;48.654;9.250;2023-07-28T02:30:22;15.50;99.90
2202;DHT22;1107;48.654;9.250;2023-07-28T02:32:49;15.50;99.90
2202;DHT22;1107;48.654;9.250;2023-07-28T02:35:17;15.50;99.90
2202;DHT22;1107;48.654;9.250;2023-07-28T02:37:44;15.40;99.90
2202;DHT22;1107;48.654;9.250;2023-07-28T02:40:11;15.40;99.90
2202;DHT22;1107;48.654;9.250;2023-07-28T02:42:38;15.40;99.90
2202;DHT22;1107;48.654;9.250;2023-07-28T02:45:06;15.50;99.90
2202;DHT22;1107;48.654;9.250;2023-07-28T02:47:35;15.40;99.90
2202;DHT22;1107;48.654;9.250;2023-07-28T02:50:03;15.40;99.90
2202;DHT22;1107;48.654;9.250;2023-07-28T02:52:31;15.40;99.90
2202;DHT22;1107;48.654;9.250;2023-07-28T02:54:58;15.40;99.90
2202;DHT22;1107;48.654;9.250;2023-07-28T02:57:25;15.40;99.90
2202;DHT22;1107;48.654;9.250;2023-07-28T02:59:52;15.40;99.90
2202;DHT22;1107;48.654;9.250;2023-07-28T03:02:19;15.30;99.90
2202;DHT22;1107;48.654;9.250;2023-07-28T03:04:46;15.30;99.90
2202;DHT22;1107;48.654;9.250;2023-07-28T03:07:13;15.40;99.90
2202;DHT22;1107;48.654;9.250;2023-07-28T03:09:41;15.40;99.90
2202;DHT22;1107;48.654;9.250;2023-07-28T03:12:08;15.50;99.90
2202;DHT22;1107;48.654;9.250;2023-07-28T03:14:36;15.50;99.90
2202;DHT22;1107;48.654;9.250;2023-07-28T03:17:03;15.60;99.90
2202;DHT22;1107;48.654;9.250;2023-07-28T03:19:30;15.60;99.90
2202;DHT22;1107;48.654;9.250;2023-07-28T03:21:57;15.70;99.90
2202;DHT22;1107;48.654;9.250;2023-07-28T03:24:24;15.70;99.90
2202;DHT22;1107;48.654;9.250;2023-07-28T03:26:52;15.80;99.90
2202;DHT22;1107;48.654;9.250;2023-07-28T03:29:19;15.90;99.90
2202;DHT22;1107;48.654;9.250;2023-07-28T03:31:46;15.90;99.90
2202;DHT22;1107;48.654;9.250;2023-07-28T03:34:13;16.00;99.90
2202;DHT22;1107;48.654;9.250;2023-07-28T03:36:40;16.00;99.90
2202;DHT22;1107;48.654;9.250;2023-07-28T03:39:07;16.10;99.90
2202;DHT22;1107;48.654;9.250;2023-07-28T03:41:34;16.20;99.90
2202;DHT22;1107;48.654;9.250;2023-07-28T03:44:02;16.20;99.90
2202;DHT22;1107;48.654;9.250;2023-07-28T03:46:29;16.30;99.90
2202;DHT22;1107;48.654;9.250;2023-07-28T03:48:56;16.30;99.90
2202;DHT22;1107;48.654;9.250;2023-07-28T03:51:24;16.40;99.90
2202;DHT22;1107;48.654;9.250;2023-07-28T03:53:51;16.40;99.90
2202;DHT22;1107;48.654;9.250;2023-07-28T03:56:17;16.40;99.90
2202;DHT22;1107;48.654;9.250;2023-07-28T03:58:44;16.50;99.90
2202;DHT22;1107;48.654;9.250;2023-07-28T04:01:13;16.50;99.90
2202;DHT22;1107;48.654;9.250;2023-07-28T04:03:40;16.60;99.90
2202;DHT22;1107;48.654;9.250;2023-07-28T04:06:11;16.60;99.90
2202;DHT22;1107;48.654;9.250;2023-07-28T04:08:38;16.70;99.90
2202;DHT22;1107;48.654;9.250;2023-07-28T04:11:05;16.70;99.90
2202;DHT22;1107;48.654;9.250;2023-07-28T04:13:33;16.80;99.90
2202;DHT22;1107;48.654;9.250;2023-07-28T04:16:00;16.80;99.90
2202;DHT22;1107;48.654;9.250;2023-07-28T04:18:28;16.80;99.90
2202;DHT22;1107;48.654;9.250;2023-07-28T04:20:55;16.80;99.90
2202;DHT22;1107;48.654;9.250;2023-07-28T04:23:22;16.80;99.90
2202;DHT22;1107;48.654;9.250;2023-07-28T04:25:49;16.80;99.90
2202;DHT22;1107;48.654;9.250;2023-07-28T04:28:16;16.80;99.90
2202;DHT22;1107;48.654;9.250;2023-07-28T04:30:43;16.80;99.90
2202;DHT22;1107;48.654;9.250;2023-07-28T04:33:10;16.80;99.90
2202;DHT22;1107;48.654;9.250;2023-07-28T04:35:38;16.80;99.90
2202;DHT22;1107;48.654;9.250;2023-07-28T04:38:05;16.80;99.90
2202;DHT22;1107;48.654;9.250;2023-07-28T04:40:32;16.80;99.90
2202;DHT22;1107;48.654;9.250;2023-07-28T04:42:59;16.80;99.90
2202;DHT22;1107;48.654;9.250;2023-07-28T04:45:26;16.80;99.90
2202;DHT22;1107;48.654;9.250;2023-07-28T04:47:53;16.80;99.90
2202;DHT22;1107;48.654;9.250;2023-07-28T04:50:19;16.80;99.90
2202;DHT22;1107;48.654;9.250;2023-07-28T04:52:48;16.90;99.90
2202;DHT22;1107;48.654;9.250;2023-07-28T04:55:15;16.90;99.90
2202;DHT22;1107;48.654;9.250;2023-07-28T04:57:42;16.90;99.90
2202;DHT22;1107;48.654;9.250;2023-07-28T05:00:09;17.00;99.90
2202;DHT22;1107;48.654;9.250;2023-07-28T05:02:36;17.00;99.90
2202;DHT22;1107;48.654;9.250;2023-07-28T05:05:04;17.00;99.90
2202;DHT22;1107;48.654;9.250;2023-07-28T05:07:31;17.00;99.90
2202;DHT22;1107;48.654;9.250;2023-07-28T05:09:59;17.00;99.90
2202;DHT22;1107;48.654;9.250;2023-07-28T05:12:26;17.00;99.90
2202;DHT22;1107;48.654;9.250;2023-07-28T05:14:53;17.10;99.90
2202;DHT22;1107;48.654;9.250;2023-07-28T05:17:20;17.10;99.90
2202;DHT22;1107;48.654;9.250;2023-07-28T05:19:47;17.20;99.90
2202;DHT22;1107;48.654;9.250;2023-07-28T05:22:14;17.20;99.90
2202;DHT22;1107;48.654;9.250;2023-07-28T05:24:41;17.20;99.90
2202;DHT22;1107;48.654;9.250;2023-07-28T05:27:09;17.20;99.90
2202;DHT22;1107;48.654;9.250;2023-07-28T05:29:36;17.20;99.90
2202;DHT22;1107;48.654;9.250;2023-07-28T05:32:05;17.20;99.90
2202;DHT22;1107;48.654;9.250;2023-07-28T05:34:32;17.30;99.90
2202;DHT22;1107;48.654;9.250;2023-07-28T05:36:59;17.30;99.90
2202;DHT22;1107;48.654;9.250;2023-07-28T05:39:26;17.20;99.90
2202;DHT22;1107;48.654;9.250;2023-07-28T05:41:53;17.20;99.90
2202;DHT22;1107;48.654;9.250;2023-07-28T05:44:21;17.30;99.90
2202;DHT22;1107;48.654;9.250;2023-07-28T05:46:48;17.30;99.90
2202;DHT22;1107;48.654;9.250;2023-07-28T05:49:15;17.30;99.90
2202;DHT22;1107;48.654;9.250;2023-07-28T05:51:42;17.30;99.90
2202;DHT22;1107;48.654;9.250;2023-07-28T05:54:09;17.40;99.90
2202;DHT22;1107;48.654;9.250;2023-07-28T05:56:38;17.40;99.90
2202;DHT22;1107;48.654;9.250;2023-07-28T05:59:05;17.40;99.90
2202;DHT22;1107;48.654;9.250;2023-07-28T06:01:33;17.50;99.90
2202;DHT22;1107;48.654;9.250;2023-07-28T06:04:00;17.50;99.90
2202;DHT22;1107;48.654;9.250;2023-07-28T06:06:27;17.60;99.90
2202;DHT22;1107;48.654;9.250;2023-07-28T06:08:54;17.60;99.90
2202;DHT22;1107;48.654;9.250;2023-07-28T06:11:21;17.70;99.90
2202;DHT22;1107;48.654;9.250;2023-07-28T06:13:48;17.70;99.90
2202;DHT22;1107;48.654;9.250;2023-07-28T06:16:15;17.70;99.90
2202;DHT22;1107;48.654;9.250;2023-07-28T06:18:44;17.70;99.90
2202;DHT22;1107;48.654;9.250;2023-07-28T06:21:11;17.80;99.90
2202;DHT22;1107;48.654;9.250;2023-07-28T06:23:37;17.80;99.90
2202;DHT22;1107;48.654;9.250;2023-07-28T06:26:04;17.90;99.90
2202;DHT22;1107;48.654;9.250;2023-07-28T06:28:31;17.90;99.90
2202;DHT22;1107;48.654;9.250;2023-07-28T06:30:58;18.00;99.90
2202;DHT22;1107;48.654;9.250;2023-07-28T06:33:27;18.00;99.90
2202;DHT22;1107;48.654;9.250;2023-07-28T06:35:56;18.00;99.90
2202;DHT22;1107;48.654;9.250;2023-07-28T06:38:23;17.90;99.90
2202;DHT22;1107;48.654;9.250;2023-07-28T06:40:49;17.90;99.90
2202;DHT22;1107;48.654;9.250;2023-07-28T06:43:16;17.80;99.90
2202;DHT22;1107;48.654;9.250;2023-07-28T06:45:44;17.80;99.90
2202;DHT22;1107;48.654;9.250;2023-07-28T06:48:11;17.80;99.90
2202;DHT22;1107;48.654;9.250;2023-07-28T06:50:38;18.00;99.90
2202;DHT22;1107;48.654;9.250;2023-07-28T06:53:06;18.00;99.90
2202;DHT22;1107;48.654;9.250;2023-07-28T06:55:33;18.10;99.90
2202;DHT22;1107;48.654;9.250;2023-07-28T06:58:01;18.10;99.90
2202;DHT22;1107;48.654;9.250;2023-07-28T07:00:28;18.10;99.90
2202;DHT22;1107;48.654;9.250;2023-07-28T07:02:54;18.10;99.90
2202;DHT22;1107;48.654;9.250;2023-07-28T07:05:21;18.10;99.90
2202;DHT22;1107;48.654;9.250;2023-07-28T07:07:49;18.10;99.90
2202;DHT22;1107;48.654;9.250;2023-07-28T07:10:17;18.20;99.90
2202;DHT22;1107;48.654;9.250;2023-07-28T07:12:46;18.30;99.90
2202;DHT22;1107;48.654;9.250;2023-07-28T07:15:13;18.50;99.90
2202;DHT22;1107;48.654;9.250;2023-07-28T07:17:41;18.60;99.90
2202;DHT22;1107;48.654;9.250;2023-07-28T07:20:09;18.70;99.90
2202;DHT22;1107;48.654;9.250;2023-07-28T07:22:37;18.70;99.90
2202;DHT22;1107;48.654;9.250;2023-07-28T07:25:04;18.70;99.90
2202;DHT22;1107;48.654;9.250;2023-07-28T07:27:34;18.70;99.90
2202;DHT22;1107;48.654;9.250;2023-07-28T07:30:00;18.70;99.90
2202;DHT22;1107;48.654;9.250;2023-07-28T07:32:28;18.70;99.90
2202;DHT22;1107;48.654;9.250;2023-07-28T07:34:55;18.60;99.90
2202;DHT22;1107;48.654;9.250;2023-07-28T07:37:22;18.60;99.90
2202;DHT22;1107;48.654;9.250;2023-07-28T07:39:49;18.70;99.90
2202;DHT22;1107;48.654;9.250;2023-07-28T07:42:16;18.80;99.90
2202;DHT22;1107;48.654;9.250;2023-07-28T07:44:44;18.90;99.90
2202;DHT22;1107;48.654;9.250;2023-07-28T07:47:15;19.00;99.90
2202;DHT22;1107;48.654;9.250;2023-07-28T07:49:42;19.10;99.90
2202;DHT22;1107;48.654;9.250;2023-07-28T07:52:09;19.10;99.90
2202;DHT22;1107;48.654;9.250;2023-07-28T07:54:37;19.00;99.90
2202;DHT22;1107;48.654;9.250;2023-07-28T07:57:05;19.00;99.90
2202;DHT22;1107;48.654;9.250;2023-07-28T07:59:32;19.00;99.90
2202;DHT22;1107;48.654;9.250;2023-07-28T08:02:00;19.00;99.90
2202;DHT22;1107;48.654;9.250;2023-07-28T08:06:56;18.80;99.90
2202;DHT22;1107;48.654;9.250;2023-07-28T08:09:23;18.80;99.90
2202;DHT22;1107;48.654;9.250;2023-07-28T08:11:50;18.80;99.90
2202;DHT22;1107;48.654;9.250;2023-07-28T08:14:18;18.80;99.90
2202;DHT22;1107;48.654;9.250;2023-07-28T08:16:45;18.80;99.90
2202;DHT22;1107;48.654;9.250;2023-07-28T08:19:13;18.90;99.90
2202;DHT22;1107;48.654;9.250;2023-07-28T08:21:40;19.00;99.90
2202;DHT22;1107;48.654;9.250;2023-07-28T08:24:07;19.10;99.90
2202;DHT22;1107;48.654;9.250;2023-07-28T08:26:34;19.40;99.90
2202;DHT22;1107;48.654;9.250;2023-07-28T08:29:01;19.60;99.90
2202;DHT22;1107;48.654;9.250;2023-07-28T08:31:28;19.90;99.90
2202;DHT22;1107;48.654;9.250;2023-07-28T08:33:55;20.40;99.90
2202;DHT22;1107;48.654;9.250;2023-07-28T08:36:23;21.00;99.90
2202;DHT22;1107;48.654;9.250;2023-07-28T08:38:50;21.30;99.90
2202;DHT22;1107;48.654;9.250;2023-07-28T08:41:17;21.70;99.90
2202;DHT22;1107;48.654;9.250;2023-07-28T08:43:45;22.20;99.90
2202;DHT22;1107;48.654;9.250;2023-07-28T08:46:12;22.00;99.90
2202;DHT22;1107;48.654;9.250;2023-07-28T08:48:39;21.90;99.90
2202;DHT22;1107;48.654;9.250;2023-07-28T08:51:06;21.70;99.90
2202;DHT22;1107;48.654;9.250;2023-07-28T08:53:35;21.70;99.90
2202;DHT22;1107;48.654;9.250;2023-07-28T08:56:02;22.40;99.90
2202;DHT22;1107;48.654;9.250;2023-07-28T08:58:30;22.70;99.90
2202;DHT22;1107;48.654;9.250;2023-07-28T09:00:57;23.20;99.90
2202;DHT22;1107;48.654;9.250;2023-07-28T09:03:27;24.10;99.90
2202;DHT22;1107;48.654;9.250;2023-07-28T09:05:59;24.80;99.90
2202;DHT22;1107;48.654;9.250;2023-07-28T09:08:26;25.50;1.00
2202;DHT22;1107;48.654;9.250;2023-07-28T09:10:55;26.50;1.00
2202;DHT22;1107;48.654;9.250;2023-07-28T09:13:22;26.30;1.00
2202;DHT22;1107;48.654;9.250;2023-07-28T09:15:49;25.60;1.00
2202;DHT22;1107;48.654;9.250;2023-07-28T09:18:17;24.80;1.00
2202;DHT22;1107;48.654;9.250;2023-07-28T09:20:44;24.10;1.00
2202;DHT22;1107;48.654;9.250;2023-07-28T09:23:14;23.40;1.00
2202;DHT22;1107;48.654;9.250;2023-07-28T09:25:41;22.90;99.90
2202;DHT22;1107;48.654;9.250;2023-07-28T09:28:10;22.60;1.00
2202;DHT22;1107;48.654;9.250;2023-07-28T09:30:45;22.40;99.90
2202;DHT22;1107;48.654;9.250;2023-07-28T09:33:12;22.20;99.90
2202;DHT22;1107;48.654;9.250;2023-07-28T09:35:48;22.20;99.90
2202;DHT22;1107;48.654;9.250;2023-07-28T09:38:15;22.20;99.90
2202;DHT22;1107;48.654;9.250;2023-07-28T09:40:43;22.20;99.90
2202;DHT22;1107;48.654;9.250;2023-07-28T09:43:13;22.30;99.90
2202;DHT22;1107;48.654;9.250;2023-07-28T09:45:42;22.30;99.90
2202;DHT22;1107;48.654;9.250;2023-07-28T09:48:10;22.30;99.90
2202;DHT22;1107;48.654;9.250;2023-07-28T09:50:40;22.20;99.90
2202;DHT22;1107;48.654;9.250;2023-07-28T09:53:09;22.20;99.90
2202;DHT22;1107;48.654;9.250;2023-07-28T09:55:39;22.30;99.90
2202;DHT22;1107;48.654;9.250;2023-07-28T09:58:09;22.50;99.90
2202;DHT22;1107;48.654;9.250;2023-07-28T10:00:39;22.40;99.90
2202;DHT22;1107;48.654;9.250;2023-07-28T10:03:07;22.40;99.90
2202;DHT22;1107;48.654;9.250;2023-07-28T10:05:35;22.40;99.90
2202;DHT22;1107;48.654;9.250;2023-07-28T10:08:03;22.40;99.90
2202;DHT22;1107;48.654;9.250;2023-07-28T10:10:31;22.60;99.90
2202;DHT22;1107;48.654;9.250;2023-07-28T10:12:59;22.80;99.90
2202;DHT22;1107;48.654;9.250;2023-07-28T10:15:30;23.10;99.90
2202;DHT22;1107;48.654;9.250;2023-07-28T10:17:59;23.50;99.90
2202;DHT22;1107;48.654;9.250;2023-07-28T10:20:27;23.90;99.90
2202;DHT22;1107;48.654;9.250;2023-07-28T10:23:02;24.40;1.00
2202;DHT22;1107;48.654;9.250;2023-07-28T10:25:32;24.80;1.00
2202;DHT22;1107;48.654;9.250;2023-07-28T10:28:00;24.90;1.00
2202;DHT22;1107;48.654;9.250;2023-07-28T10:30:28;24.80;1.00
2202;DHT22;1107;48.654;9.250;2023-07-28T10:32:56;24.60;1.00
2202;DHT22;1107;48.654;9.250;2023-07-28T10:35:26;24.50;1.00
2202;DHT22;1107;48.654;9.250;2023-07-28T10:37:54;24.40;1.00
2202;DHT22;1107;48.654;9.250;2023-07-28T10:40:23;24.60;1.00
2202;DHT22;1107;48.654;9.250;2023-07-28T10:42:51;24.60;1.00
2202;DHT22;1107;48.654;9.250;2023-07-28T10:45:18;24.80;1.00
2202;DHT22;1107;48.654;9.250;2023-07-28T10:47:45;25.10;1.00
2202;DHT22;1107;48.654;9.250;2023-07-28T10:50:13;25.40;1.00
2202;DHT22;1107;48.654;9.250;2023-07-28T10:52:42;25.60;1.00
2202;DHT22;1107;48.654;9.250;2023-07-28T10:55:13;25.80;1.00
2202;DHT22;1107;48.654;9.250;2023-07-28T10:57:41;26.00;1.00
2202;DHT22;1107;48.654;9.250;2023-07-28T11:00:10;26.30;1.00
2202;DHT22;1107;48.654;9.250;2023-07-28T11:02:39;26.60;1.00
2202;DHT22;1107;48.654;9.250;2023-07-28T11:05:10;26.60;1.00
2202;DHT22;1107;48.654;9.250;2023-07-28T11:07:41;26.40;1.00
2202;DHT22;1107;48.654;9.250;2023-07-28T11:10:09;26.30;1.00
2202;DHT22;1107;48.654;9.250;2023-07-28T11:12:40;26.20;1.00
2202;DHT22;1107;48.654;9.250;2023-07-28T11:15:09;26.20;1.00
2202;DHT22;1107;48.654;9.250;2023-07-28T11:17:37;26.30;1.00
2202;DHT22;1107;48.654;9.250;2023-07-28T11:20:06;26.20;1.00
2202;DHT22;1107;48.654;9.250;2023-07-28T11:22:43;26.00;1.00
2202;DHT22;1107;48.654;9.250;2023-07-28T11:25:11;26.00;1.00
2202;DHT22;1107;48.654;9.250;2023-07-28T11:27:38;26.10;1.00
2202;DHT22;1107;48.654;9.250;2023-07-28T11:30:07;26.10;1.00
2202;DHT22;1107;48.654;9.250;2023-07-28T11:32:36;25.90;1.00
2202;DHT22;1107;48.654;9.250;2023-07-28T11:35:04;25.80;1.00
2202;DHT22;1107;48.654;9.250;2023-07-28T11:37:32;25.90;1.00
2202;DHT22;1107;48.654;9.250;2023-07-28T11:40:01;26.10;1.00
2202;DHT22;1107;48.654;9.250;2023-07-28T11:42:32;26.10;1.00
2202;DHT22;1107;48.654;9.250;2023-07-28T11:45:00;25.90;1.00
2202;DHT22;1107;48.654;9.250;2023-07-28T11:47:28;25.50;1.00
2202;DHT22;1107;48.654;9.250;2023-07-28T11:49:56;25.00;1.00
2202;DHT22;1107;48.654;9.250;2023-07-28T11:52:24;24.50;1.00
2202;DHT22;1107;48.654;9.250;2023-07-28T11:54:51;24.00;1.00
2202;DHT22;1107;48.654;9.250;2023-07-28T11:57:21;23.70;1.00
2202;DHT22;1107;48.654;9.250;2023-07-28T11:59:48;23.60;1.00
2202;DHT22;1107;48.654;9.250;2023-07-28T12:02:15;23.20;1.00
2202;DHT22;1107;48.654;9.250;2023-07-28T12:04:50;22.90;1.00
2202;DHT22;1107;48.654;9.250;2023-07-28T12:07:19;22.50;99.90
2202;DHT22;1107;48.654;9.250;2023-07-28T12:09:48;22.30;99.90
2202;DHT22;1107;48.654;9.250;2023-07-28T12:12:17;22.00;99.90
2202;DHT22;1107;48.654;9.250;2023-07-28T12:14:46;21.80;99.90
2202;DHT22;1107;48.654;9.250;2023-07-28T12:17:13;21.60;99.90
2202;DHT22;1107;48.654;9.250;2023-07-28T12:19:41;21.60;99.90
2202;DHT22;1107;48.654;9.250;2023-07-28T12:22:08;21.70;99.90
2202;DHT22;1107;48.654;9.250;2023-07-28T12:24:37;21.80;99.90
2202;DHT22;1107;48.654;9.250;2023-07-28T12:27:05;21.90;99.90
2202;DHT22;1107;48.654;9.250;2023-07-28T12:29:32;21.90;99.90
2202;DHT22;1107;48.654;9.250;2023-07-28T12:32:00;21.90;99.90
2202;DHT22;1107;48.654;9.250;2023-07-28T12:34:27;22.00;99.90
2202;DHT22;1107;48.654;9.250;2023-07-28T12:36:54;22.10;99.90
2202;DHT22;1107;48.654;9.250;2023-07-28T12:39:21;22.10;99.90
2202;DHT22;1107;48.654;9.250;2023-07-28T12:41:49;22.10;99.90
2202;DHT22;1107;48.654;9.250;2023-07-28T12:44:19;22.20;99.90
2202;DHT22;1107;48.654;9.250;2023-07-28T12:46:46;22.40;99.90
2202;DHT22;1107;48.654;9.250;2023-07-28T12:49:14;22.60;99.90
2202;DHT22;1107;48.654;9.250;2023-07-28T12:51:41;22.90;99.90
2202;DHT22;1107;48.654;9.250;2023-07-28T12:54:08;23.00;99.90
2202;DHT22;1107;48.654;9.250;2023-07-28T12:56:35;23.00;99.90
2202;DHT22;1107;48.654;9.250;2023-07-28T12:59:02;23.00;99.90
2202;DHT22;1107;48.654;9.250;2023-07-28T13:03:56;23.00;99.90
2202;DHT22;1107;48.654;9.250;2023-07-28T13:06:24;22.90;99.90
2202;DHT22;1107;48.654;9.250;2023-07-28T13:08:51;22.80;99.90
2202;DHT22;1107;48.654;9.250;2023-07-28T13:11:18;22.80;99.90
2202;DHT22;1107;48.654;9.250;2023-07-28T13:13:45;22.70;99.90
2202;DHT22;1107;48.654;9.250;2023-07-28T13:16:12;22.60;99.90
2202;DHT22;1107;48.654;9.250;2023-07-28T13:18:38;22.60;99.90
2202;DHT22;1107;48.654;9.250;2023-07-28T13:21:06;22.50;99.90
2202;DHT22;1107;48.654;9.250;2023-07-28T13:23:34;22.50;99.90
2202;DHT22;1107;48.654;9.250;2023-07-28T13:26:01;22.50;99.90
2202;DHT22;1107;48.654;9.250;2023-07-28T13:28:30;22.60;99.90
2202;DHT22;1107;48.654;9.250;2023-07-28T13:30:57;22.70;99.90
2202;DHT22;1107;48.654;9.250;2023-07-28T13:33:24;22.70;99.90
2202;DHT22;1107;48.654;9.250;2023-07-28T13:35:51;22.70;99.90
2202;DHT22;1107;48.654;9.250;2023-07-28T13:38:18;22.70;99.90
2202;DHT22;1107;48.654;9.250;2023-07-28T13:40:46;22.60;99.90
2202;DHT22;1107;48.654;9.250;2023-07-28T13:43:13;22.50;99.90
2202;DHT22;1107;48.654;9.250;2023-07-28T13:45:40;22.40;99.90
2202;DHT22;1107;48.654;9.250;2023-07-28T13:48:07;22.40;99.90
2202;DHT22;1107;48.654;9.250;2023-07-28T13:50:34;22.30;99.90
2202;DHT22;1107;48.654;9.250;2023-07-28T13:53:00;22.10;99.90
2202;DHT22;1107;48.654;9.250;2023-07-28T13:55:27;22.00;99.90
2202;DHT22;1107;48.654;9.250;2023-07-28T13:57:56;21.90;99.90
2202;DHT22;1107;48.654;9.250;2023-07-28T14:00:23;21.80;99.90
2202;DHT22;1107;48.654;9.250;2023-07-28T14:02:49;21.60;99.90
2202;DHT22;1107;48.654;9.250;2023-07-28T14:05:16;21.40;99.90
2202;DHT22;1107;48.654;9.250;2023-07-28T14:07:44;21.20;99.90
2202;DHT22;1107;48.654;9.250;2023-07-28T14:10:11;21.10;99.90
2202;DHT22;1107;48.654;9.250;2023-07-28T14:12:38;21.00;99.90
2202;DHT22;1107;48.654;9.250;2023-07-28T14:15:08;20.90;99.90
2202;DHT22;1107;48.654;9.250;2023-07-28T14:17:35;21.00;99.90
2202;DHT22;1107;48.654;9.250;2023-07-28T14:20:03;21.00;99.90
2202;DHT22;1107;48.654;9.250;2023-07-28T14:22:30;21.10;99.90
2202;DHT22;1107;48.654;9.250;2023-07-28T14:24:57;21.30;99.90
2202;DHT22;1107;48.654;9.250;2023-07-28T14:27:23;21.50;99.90
2202;DHT22;1107;48.654;9.250;2023-07-28T14:29:50;21.50;99.90
2202;DHT22;1107;48.654;9.250;2023-07-28T14:32:19;21.60;99.90
2202;DHT22;1107;48.654;9.250;2023-07-28T14:34:46;21.70;99.90
2202;DHT22;1107;48.654;9.250;2023-07-28T14:37:13;21.80;99.90
2202;DHT22;1107;48.654;9.250;2023-07-28T14:39:40;21.80;99.90
2202;DHT22;1107;48.654;9.250;2023-07-28T14:42:07;21.90;99.90
2202;DHT22;1107;48.654;9.250;2023-07-28T14:44:34;21.90;99.90
2202;DHT22;1107;48.654;9.250;2023-07-28T14:47:00;22.00;99.90
2202;DHT22;1107;48.654;9.250;2023-07-28T14:49:29;21.90;99.90
2202;DHT22;1107;48.654;9.250;2023-07-28T14:51:56;22.00;99.90
2202;DHT22;1107;48.654;9.250;2023-07-28T14:54:23;22.00;99.90
2202;DHT22;1107;48.654;9.250;2023-07-28T14:56:50;22.10;99.90
2202;DHT22;1107;48.654;9.250;2023-07-28T14:59:17;22.10;99.90
2202;DHT22;1107;48.654;9.250;2023-07-28T15:01:44;22.20;99.90
2202;DHT22;1107;48.654;9.250;2023-07-28T15:04:12;22.40;99.90
2202;DHT22;1107;48.654;9.250;2023-07-28T15:06:41;22.50;99.90
2202;DHT22;1107;48.654;9.250;2023-07-28T15:09:07;22.50;99.90
2202;DHT22;1107;48.654;9.250;2023-07-28T15:11:34;22.60;99.90
2202;DHT22;1107;48.654;9.250;2023-07-28T15:14:01;22.70;99.90
2202;DHT22;1107;48.654;9.250;2023-07-28T15:16:29;22.70;99.90
2202;DHT22;1107;48.654;9.250;2023-07-28T15:18:56;22.70;99.90
2202;DHT22;1107;48.654;9.250;2023-07-28T15:21:22;22.50;99.90
2202;DHT22;1107;48.654;9.250;2023-07-28T15:23:54;22.50;99.90
2202;DHT22;1107;48.654;9.250;2023-07-28T15:26:21;22.50;99.90
2202;DHT22;1107;48.654;9.250;2023-07-28T15:28:48;22.50;99.90
2202;DHT22;1107;48.654;9.250;2023-07-28T15:31:15;22.60;99.90
2202;DHT22;1107;48.654;9.250;2023-07-28T15:33:42;22.60;99.90
2202;DHT22;1107;48.654;9.250;2023-07-28T15:36:09;22.60;99.90
2202;DHT22;1107;48.654;9.250;2023-07-28T15:38:37;22.30;99.90
2202;DHT22;1107;48.654;9.250;2023-07-28T15:41:05;22.10;99.90
2202;DHT22;1107;48.654;9.250;2023-07-28T15:43:32;21.90;99.90
2202;DHT22;1107;48.654;9.250;2023-07-28T15:45:59;21.70;99.90
2202;DHT22;1107;48.654;9.250;2023-07-28T15:48:29;21.50;99.90
2202;DHT22;1107;48.654;9.250;2023-07-28T15:50:56;21.40;99.90
2202;DHT22;1107;48.654;9.250;2023-07-28T15:53:23;21.30;99.90
2202;DHT22;1107;48.654;9.250;2023-07-28T15:55:50;21.30;99.90
2202;DHT22;1107;48.654;9.250;2023-07-28T15:58:19;21.30;99.90
2202;DHT22;1107;48.654;9.250;2023-07-28T16:00:46;21.30;99.90
2202;DHT22;1107;48.654;9.250;2023-07-28T16:03:13;21.40;99.90
2202;DHT22;1107;48.654;9.250;2023-07-28T16:05:39;21.30;99.90
2202;DHT22;1107;48.654;9.250;2023-07-28T16:08:06;21.30;99.90
2202;DHT22;1107;48.654;9.250;2023-07-28T16:10:34;21.20;99.90
2202;DHT22;1107;48.654;9.250;2023-07-28T16:13:01;21.00;99.90